Tiempo atmosférico en la estación meteorológica de Polinyà de Xúquer, València/Valencia (12 m.)



Fecha
DESCASC
Temp. máxima en grados centígrados (hora)
DESCASC
Temp. mínima en grados centígrados (hora)
DESCASC
Temp. media en grados centígrados
DESCASC
Racha de viento máxima en m/sg (hora)
DESCASC
Velocidad máxima media en intervalos de 10 minutos(hora)
DESCASC
Precipitaciones diarias en mm
DESCASC
Precipitaciones de 00:00 a 06:00 en mm
DESCASC
Precipitaciones de 06:00 a 12:00 en mm
DESCASC
Precipitaciones de 12:00 a 18:00 en mm
DESCASC
Precipitaciones de 18:00 a 24:00 en mm
DESCASC
22-10-2019 15.1 (18:10) 12.7 (05:40) 13.9 7.22 (13:10) 3.89 (13:10) 33.3 17 13.9 2.4 0
15-11-2019 15.7 (15:20) 7.4 (00:00) 11.5 13.89 (00:20) 5 (00:10) 0 0 0 0 0
16-11-2019 16 (16:20) 6.2 (00:00) 11.1 6.94 (09:30) 3.61 (09:30) 0 0 0 0 0
14-11-2019 16.2 (10:40) 9.6 (00:00) 12.9 12.5 (16:50) 5 (09:50) 0 0 0 0 0
08-11-2019 16.9 (16:40) 8.3 (05:20) 12.6 9.17 (14:40) 3.89 (01:50) 0 0 0 0 0
10-11-2019 17.2 (14:30) 8.8 (00:00) 13 8.89 (04:10) 3.89 (05:40) 0 0 0 0 0
11-11-2019 17.8 (14:00) 8 (03:40) 12.9 8.06 (10:30) 3.89 (09:50) 0 0 0 0 0
23-10-2019 18.4 (14:30) 10.9 (00:00) 14.6 7.5 (12:40) 3.89 (11:50) 1 0 0.1 0.9 0
09-11-2019 18.4 (14:10) 10.8 (00:00) 14.6 9.72 (11:40) 4.44 (11:00) 0 0 0 0 0
21-10-2019 19.2 (15:10) 11.4 (00:00) 15.3 6.67 (17:50) 3.61 (06:00) 0 0 0 0 0
12-11-2019 19.3 (16:40) 9.7 (00:00) 14.5 9.17 (22:40) 3.61 (09:50) 0 0 0 0 0
13-11-2019 19.7 (12:00) 9 (00:00) 14.4 7.78 (12:10) 3.61 (14:40) 8.3 1.7 1.1 5.5 0
05-11-2019 19.9 (01:40) 13.6 (00:00) 16.8 11.67 (09:00) 5 (00:10) 0 0 0 0 0
20-10-2019 20 (17:20) 11.9 (00:00) 15.9 6.11 (07:50) 2.5 (13:50) 1.5 0 1.1 0.4 0
28-10-2019 20.9 (16:30) 14.2 (00:00) 17.5 5.56 (08:30) 2.5 (09:20) 0 0 0 0 0
07-11-2019 21.3 (16:10) 11.8 (00:00) 16.5 10.28 (14:30) 3.61 (01:40) 0 0 0 0 0
06-11-2019 21.4 (16:30) 11.8 (00:00) 16.6 8.33 (16:50) 3.89 (16:50) 0 0 0 0 0
26-10-2019 21.5 (14:20) 9.8 (00:00) 15.7 5 (15:00) 2.5 (17:20) 0 0 0 0 0
27-10-2019 21.5 (13:30) 13.5 (00:00) 17.5 6.11 (16:20) 3.33 (16:20) 0 0 0 0 0
24-10-2019 21.6 (17:50) 11.3 (00:00) 16.5 6.67 (04:00) 3.33 (04:00) 0 0 0 0 0
25-10-2019 22.1 (14:50) 13.1 (00:00) 17.6 7.22 (09:50) 3.33 (09:10) 0 0 0 0 0
03-11-2019 23.4 (12:10) 17.3 (00:00) 20.3 11.67 (04:40) 3.89 (09:30) 0 0 0 0 0
30-10-2019 23.9 (15:00) 13.7 (00:00) 18.8 5.83 (10:20) 2.78 (10:40) 0 0 0 0 0
04-11-2019 24 (15:30) 16.9 (00:00) 20.4 13.61 (23:59) 5.83 (23:50) 0 0 0 0 0
29-10-2019 24.3 (14:00) 12 (00:00) 18.1 7.5 (16:10) 3.89 (16:10) 0 0 0 0 0
02-11-2019 25.6 (14:50) 18.5 (00:00) 22.1 9.72 (06:40) 3.61 (22:20) 0 0 0 0 0
31-10-2019 26.3 (13:50) 16.5 (23:59) 21.4 6.94 (10:40) 3.33 (10:20) 0 0 0 0 0
19-10-2019 26.4 (14:20) 17.2 (00:00) 21.8 8.89 (16:00) 4.44 (16:30) 0 0 0 0 0
01-11-2019 26.7 (14:40) 15.1 (00:00) 20.9 8.06 (11:10) 4.17 (11:10) 0 0 0 0 0
18-10-2019 27.7 (17:30) 16.1 (00:00) 21.9 5.83 (05:40) 3.33 (05:40) 0 0 0 0 0

Gráficas

Temp. máximas Temp. mínimas Temp. medias Precipitaciones Rachas de viento máximas Velocidades máximas media en intervalos de 10 minutos

Datos horarios

Fecha y hora oficial Temperatura (ºC) Velocidad del viento (km/h) Dirección del viento Racha (km/h) Dirección de racha Precipitación (mm) Presión (hPa) Tendencia (hPa) Humedad (%)
2019-11-16 23:00:00 9.7 7 Sudoeste 17 Sudoeste 0 -- -- 47
2019-11-16 22:00:00 9.8 5 Sudoeste 14 Sudoeste 0 -- -- 47
2019-11-16 21:00:00 8.9 0 Calma 14 Sudoeste 0 -- -- 48
2019-11-16 20:00:00 9.9 3 Sudoeste 13 Sudoeste 0 -- -- 44
2019-11-16 19:00:00 10.6 3 Sudoeste 14 Sudoeste 0 -- -- 42
2019-11-16 18:00:00 10 0 Calma 9 Sudoeste 0 -- -- 46
2019-11-16 17:00:00 15.1 3 Sudoeste 9 Sudoeste 0 -- -- 35
2019-11-16 16:00:00 15.5 5 Sudoeste 13 Sudoeste 0 -- -- 35
2019-11-16 15:00:00 15.1 0 Calma 16 Sudoeste 0 -- -- 36
2019-11-16 14:00:00 14.7 3 Sudoeste 18 Sudoeste 0 -- -- 37
2019-11-16 13:00:00 14 3 Sudoeste 17 Sudoeste 0 -- -- 41
2019-11-16 12:00:00 13.1 4 Sudoeste 20 Sudoeste 0 -- -- 44
2019-11-16 11:00:00 11.8 5 Sudoeste 22 Sudoeste 0 -- -- 48
2019-11-16 10:00:00 9.3 10 Sudoeste 25 Sudoeste 0 -- -- 54
2019-11-16 09:00:00 7.5 9 Sudoeste 18 Sudoeste 0 -- -- 60
2019-11-16 08:00:00 6.5 9 Sudoeste 17 Sudoeste 0 -- -- 63
2019-11-16 07:00:00 6.6 8 Sudoeste 18 Sudoeste 0 -- -- 61
2019-11-16 06:00:00 6.9 7 Sudoeste 14 Sudoeste 0 -- -- 61
2019-11-16 05:00:00 7.3 5 Sudoeste 14 Sudoeste 0 -- -- 60
2019-11-16 04:00:00 7.5 7 Sudoeste 13 Sudoeste 0 -- -- 57
2019-11-16 03:00:00 8 8 Sudoeste 15 Sudoeste 0 -- -- 56
2019-11-16 02:00:00 8.7 5 Sudoeste 18 Sudoeste 0 -- -- 55
2019-11-16 01:00:00 9.2 9 Sudoeste 20 Sudoeste 0 -- -- 54
2019-11-16 00:00:00 8.9 6 Sudoeste 14 Sudoeste 0 -- -- 54
2019-11-15 23:00:00 9.4 8 Sudoeste 14 Sudoeste 0 -- -- 54
2019-11-15 22:00:00 10.1 8 Sudoeste 20 Sudoeste 0 -- -- 50
2019-11-15 21:00:00 11.4 9 Sudoeste 20 Sudoeste 0 -- -- 47
2019-11-15 20:00:00 10.8 8 Sudoeste 16 Sudoeste 0 -- -- 47
2019-11-15 19:00:00 10.9 8 Sudoeste 21 Sudoeste 0 -- -- 46
2019-11-15 18:00:00 11.9 7 Sudoeste 24 Sudoeste 0 -- -- 42
2019-11-15 17:00:00 13.8 6 Sudoeste 24 Sudoeste 0 -- -- 39
2019-11-15 16:00:00 14.2 10 Sudoeste 28 Sudoeste 0 -- -- 38
2019-11-15 15:00:00 15.1 7 Sudoeste 26 Sudoeste 0 -- -- 37
2019-11-15 14:00:00 14.9 7 Sudoeste 30 Sudoeste 0 -- -- 39
2019-11-15 13:00:00 14.1 8 Sudoeste 29 Sudoeste 0 -- -- 40
2019-11-15 12:00:00 13.6 10 Sudoeste 24 Sudoeste 0 -- -- 43
2019-11-15 11:00:00 12.6 5 Sudoeste 30 Sudoeste 0 -- -- 47
2019-11-15 10:00:00 11.5 7 Sudoeste 30 Sudoeste 0 -- -- 51
2019-11-15 09:00:00 10.2 9 Sudoeste 27 Oeste 0 -- -- 54
2019-11-15 08:00:00 8.7 4 Sudoeste 17 Sudoeste 0 -- -- 57
2019-11-15 07:00:00 9.3 4 Sudoeste 19 Sudoeste 0 -- -- 55
2019-11-15 06:00:00 8.8 7 Sudoeste 17 Sudoeste 0 -- -- 60
2019-11-15 05:00:00 7.6 0 Calma 10 Norte 0 -- -- 64
2019-11-15 04:00:00 8.8 3 Sudoeste 12 Sudoeste 0 -- -- 57
2019-11-15 03:00:00 9.9 2 Oeste 24 Sudoeste 0 -- -- 51
2019-11-15 02:00:00 10.8 14 Sudoeste 39 Sudoeste 0 -- -- 48
2019-11-15 01:00:00 9.9 4 Oeste 50 Sudoeste 0 -- -- 49
2019-11-15 00:00:00 12 13 Sudoeste 40 Sudoeste 0 -- -- 45
2019-11-14 23:00:00 12.1 11 Sudoeste 37 Sudoeste 0 -- -- 44
2019-11-14 22:00:00 12.1 10 Sudoeste 30 Sudoeste 0 -- -- 45
2019-11-14 21:00:00 11.9 6 Sudoeste 23 Sudoeste 0 -- -- 47
2019-11-14 20:00:00 10.4 8 Sudoeste 20 Sudoeste 0 -- -- 51
2019-11-14 19:00:00 10.1 5 Sudoeste 16 Sudoeste 0 -- -- 51
2019-11-14 18:00:00 10.8 3 Sudoeste 16 Sudoeste 0 -- -- 47
2019-11-14 17:00:00 12.9 5 Sudoeste 45 Oeste 0 -- -- 42
2019-11-14 16:00:00 13 4 Sudoeste 30 Sudoeste 0 -- -- 42
2019-11-14 15:00:00 13 13 Sudoeste 39 Sudoeste 0 -- -- 43
2019-11-14 14:00:00 13.8 11 Sudoeste 38 Noroeste 0 -- -- 43
2019-11-14 13:00:00 15.1 5 Noroeste 36 Noroeste 0 -- -- 46
2019-11-14 12:00:00 15.8 6 Sudoeste 27 Sudoeste 0 -- -- 45
2019-11-14 11:00:00 15.4 9 Sudoeste 35 Sudoeste 0 -- -- 45
2019-11-14 10:00:00 15.5 16 Sudoeste 41 Sudoeste 0 -- -- 45
2019-11-14 09:00:00 14.8 7 Sudoeste 28 Sudoeste 0 -- -- 48
2019-11-14 08:00:00 14.9 9 Sudoeste 30 Sudoeste 0 -- -- 50
2019-11-14 07:00:00 11 0 Calma 12 Sudoeste 0 -- -- 69
2019-11-14 06:00:00 12.4 4 Sudoeste 12 Sudoeste 0 -- -- 63
2019-11-14 05:00:00 13.3 3 Sudoeste 17 Sudoeste 0 -- -- 60
2019-11-14 04:00:00 14.4 7 Sudoeste 21 Sudoeste 0 -- -- 56
2019-11-14 03:00:00 14.1 8 Sudoeste 17 Sudoeste 0 -- -- 62
2019-11-14 02:00:00 11.8 0 Calma 12 Sudoeste 0 -- -- 67
2019-11-14 01:00:00 14.3 8 Sudoeste 19 Sudoeste 0 -- -- 58
2019-11-14 00:00:00 11.3 0 Calma 10 Oeste 0 -- -- 69
2019-11-13 23:00:00 12.4 0 Calma 11 Sudoeste 0 -- -- 63
2019-11-13 22:00:00 9.4 0 Calma 8 Sudoeste 0 -- -- 80
2019-11-13 21:00:00 10.7 0 Calma -- -- 0 -- -- 80
2019-11-13 20:00:00 11 0 Calma 4 Este 0 -- -- 78
2019-11-13 19:00:00 11.8 3 Este 8 Este 0 -- -- 76
2019-11-13 18:00:00 14 0 Calma 14 Este 0 -- -- 67
2019-11-13 17:00:00 16.2 6 Sudeste 15 Este 0 -- -- 59
2019-11-13 16:00:00 16.3 10 Este 16 Este 0 -- -- 59
2019-11-13 15:00:00 16.4 10 Este 22 Este 0 -- -- 60
2019-11-13 14:00:00 16.5 9 Nordeste 17 Norte 0 -- -- 68
2019-11-13 13:00:00 14.7 0 Calma 28 Noroeste 5.5 -- -- 76
2019-11-13 12:00:00 19.5 4 Oeste 24 Sudoeste 0 -- -- 50
2019-11-13 11:00:00 16.3 0 Calma 18 Sudoeste 0 -- -- 60
2019-11-13 10:00:00 15.7 4 Sudoeste 24 Sudoeste 0 -- -- 64
2019-11-13 09:00:00 13.1 0 Calma 7 Sudoeste 0 -- -- 80
2019-11-13 08:00:00 12.2 3 Nordeste 12 Este 0 -- -- 80
2019-11-13 07:00:00 12.2 0 Calma 11 Sudoeste 1.1 -- -- 78
2019-11-13 06:00:00 12.1 2 Sudoeste 13 Sudoeste 1.5 -- -- 75
2019-11-13 05:00:00 13 4 Sudoeste 19 Sur 0.2 -- -- 58
2019-11-13 04:00:00 14.1 5 Sudoeste 17 Sudoeste 0 -- -- 49
2019-11-13 03:00:00 13.4 4 Sudoeste 24 Sudoeste 0 -- -- 51
2019-11-13 02:00:00 12.9 6 Sudoeste 14 Sudoeste 0 -- -- 55
2019-11-13 01:00:00 14.2 8 Sudoeste 23 Oeste 0 -- -- 47
2019-11-13 00:00:00 15 5 Sudoeste 24 Sudoeste 0 -- -- 41
2019-11-12 23:00:00 14.8 10 Sudoeste 33 Sudoeste 0 -- -- 41
2019-11-12 22:00:00 14.7 10 Sudoeste 22 Sudoeste 0 -- -- 42
2019-11-12 21:00:00 12.9 9 Sudoeste 14 Sudoeste 0 -- -- 45
2019-11-12 20:00:00 13.7 5 Sudoeste 14 Sudoeste 0 -- -- 42
2019-11-12 19:00:00 15.2 3 Sudoeste 15 Sudoeste 0 -- -- 40
2019-11-12 18:00:00 14.5 0 Calma 8 Norte 0 -- -- 42
2019-11-12 17:00:00 18.6 0 Calma 7 Norte 0 -- -- 35
2019-11-12 16:00:00 19.1 2 Sudoeste 23 Sudoeste 0 -- -- 34
2019-11-12 15:00:00 19 9 Sudoeste 26 Sudoeste 0 -- -- 33
2019-11-12 14:00:00 18.4 10 Sudoeste 21 Sudoeste 0 -- -- 33
2019-11-12 13:00:00 17.4 8 Sudoeste 22 Sudoeste 0 -- -- 36
2019-11-12 12:00:00 16.2 5 Sudoeste 24 Sudoeste 0 -- -- 39
2019-11-12 11:00:00 14.7 9 Sudoeste 22 Sudoeste 0 -- -- 42
2019-11-12 10:00:00 13 10 Sudoeste 24 Sudoeste 0 -- -- 43
2019-11-12 09:00:00 10.8 10 Sudoeste 21 Sudoeste 0 -- -- 45
2019-11-12 08:00:00 10.5 9 Sudoeste 20 Sudoeste 0 -- -- 46
2019-11-12 07:00:00 10.5 7 Sudoeste 17 Sudoeste 0 -- -- 47
2019-11-12 06:00:00 10.6 7 Sudoeste 17 Sudoeste 0 -- -- 48
2019-11-12 05:00:00 10.5 9 Sudoeste 15 Sudoeste 0 -- -- 48
2019-11-12 04:00:00 10.7 7 Sudoeste 14 Sudoeste 0 -- -- 48
2019-11-12 03:00:00 10.5 7 Sudoeste 15 Sudoeste 0 -- -- 50
2019-11-12 02:00:00 10.9 5 Sudoeste 19 Sudoeste 0 -- -- 51
2019-11-12 01:00:00 10.6 7 Sudoeste 14 Sudoeste 0 -- -- 53
2019-11-12 00:00:00 10.5 3 Noroeste 8 Sudoeste 0 -- -- 51
2019-11-11 23:00:00 10.6 0 Calma 7 Oeste 0 -- -- 54
2019-11-11 22:00:00 13.5 0 Calma 21 Norte 0 -- -- 47
2019-11-11 21:00:00 15.2 2 Noroeste 27 Noroeste 0 -- -- 44
2019-11-11 20:00:00 16 8 Norte 25 Noroeste 0 -- -- 44
2019-11-11 19:00:00 15.3 0 Calma 13 Norte 0 -- -- 45
2019-11-11 18:00:00 14.7 3 Sudoeste 11 Sudoeste 0 -- -- 45
2019-11-11 17:00:00 16.2 5 Sudoeste 17 Sudoeste 0 -- -- 41
2019-11-11 16:00:00 16.7 5 Sudoeste 18 Sudoeste 0 -- -- 39
2019-11-11 15:00:00 17.5 2 Oeste 15 Sudoeste 0 -- -- 38
2019-11-11 14:00:00 17.7 0 Calma 21 Sudoeste 0 -- -- 38
2019-11-11 13:00:00 16.9 4 Sudoeste 18 Sudoeste 0 -- -- 37
2019-11-11 12:00:00 15.7 7 Sudoeste 23 Sudoeste 0 -- -- 42
2019-11-11 11:00:00 13.9 11 Sudoeste 29 Sudoeste 0 -- -- 44
2019-11-11 10:00:00 12.2 13 Sudoeste 28 Sudoeste 0 -- -- 46
2019-11-11 09:00:00 10.4 12 Sudoeste 23 Sudoeste 0 -- -- 48
2019-11-11 08:00:00 9.3 11 Sudoeste 21 Sudoeste 0 -- -- 48
2019-11-11 07:00:00 8.8 10 Sudoeste 19 Sudoeste 0 -- -- 49
2019-11-11 06:00:00 8.3 8 Sudoeste 16 Sudoeste 0 -- -- 49
2019-11-11 05:00:00 8.2 7 Sudoeste 14 Oeste 0 -- -- 49
2019-11-11 04:00:00 8.4 7 Sudoeste 14 Sudoeste 0 -- -- 48
2019-11-11 03:00:00 8.6 9 Sudoeste 17 Sudoeste 0 -- -- 48
2019-11-11 02:00:00 8.7 8 Sudoeste 14 Sudoeste 0 -- -- 50
2019-11-11 01:00:00 9.1 9 Sudoeste 13 Sudoeste 0 -- -- 50
2019-11-11 00:00:00 9.7 6 Sudoeste 13 Sudoeste 0 -- -- 50
2019-11-10 23:00:00 9.2 2 Noroeste 11 Sudoeste 0 -- -- 50
2019-11-10 22:00:00 10.3 0 Calma 12 Sudoeste 0 -- -- 48
2019-11-10 21:00:00 10.9 5 Sudoeste 10 Sudoeste 0 -- -- 47
2019-11-10 20:00:00 12.5 4 Sudoeste 10 Sudoeste 0 -- -- 43
2019-11-10 19:00:00 12.7 3 Noroeste 18 Nordeste 0 -- -- 44
2019-11-10 18:00:00 13.4 0 Calma 4 Sudoeste 0 -- -- 47
2019-11-10 17:00:00 14.4 2 Norte 15 Norte 0 -- -- 41
2019-11-10 16:00:00 15.7 4 Norte 13 Norte 0 -- -- 37
2019-11-10 15:00:00 16.1 6 Sudoeste 26 Sur 0 -- -- 37
2019-11-10 14:00:00 17 4 Sudoeste 24 Sudoeste 0 -- -- 37
2019-11-10 13:00:00 15.7 2 Oeste 19 Sudoeste 0 -- -- 39
2019-11-10 12:00:00 14.6 5 Sudoeste 22 Sudoeste 0 -- -- 43
2019-11-10 11:00:00 13.5 8 Sudoeste 26 Sudoeste 0 -- -- 46
2019-11-10 10:00:00 11.9 7 Sudoeste 22 Sudoeste 0 -- -- 49
2019-11-10 09:00:00 11.5 4 Sudoeste 16 Sudoeste 0 -- -- 48
2019-11-10 08:00:00 11 4 Sudoeste 15 Sudoeste 0 -- -- 48
2019-11-10 07:00:00 11.1 9 Sudoeste 26 Sudoeste 0 -- -- 52
2019-11-10 06:00:00 11.2 11 Sudoeste 25 Oeste 0 -- -- 53
2019-11-10 05:00:00 12.7 2 Oeste 32 Noroeste 0 -- -- 47
2019-11-10 04:00:00 12.8 7 Noroeste 28 Norte 0 -- -- 47
2019-11-10 03:00:00 14.4 13 Sudoeste 26 Oeste 0 -- -- 51
2019-11-10 02:00:00 14.4 9 Sudoeste 28 Sudoeste 0 -- -- 52
2019-11-10 01:00:00 14.1 6 Sudoeste 22 Sudoeste 0 -- -- 51
2019-11-10 00:00:00 14.1 4 Sudoeste 29 Sudoeste 0 -- -- 51
2019-11-09 23:00:00 14.2 6 Sudoeste 32 Sudoeste 0 -- -- 48
2019-11-09 22:00:00 14.3 7 Sudoeste 30 Sudoeste 0 -- -- 46
2019-11-09 21:00:00 15.7 7 Sudoeste 28 Sudoeste 0 -- -- 39
2019-11-09 20:00:00 16.3 5 Sudoeste 24 Sudoeste 0 -- -- 37
2019-11-09 19:00:00 15.8 3 Sudoeste 15 Sur 0 -- -- 37
2019-11-09 18:00:00 16 4 Sudoeste 21 Sudoeste 0 -- -- 36
2019-11-09 17:00:00 16.4 6 Sudoeste 22 Sudoeste 0 -- -- 35
2019-11-09 16:00:00 16.6 8 Sudoeste 27 Sudoeste 0 -- -- 35
2019-11-09 15:00:00 17.1 10 Sudoeste 35 Sudoeste 0 -- -- 34
2019-11-09 14:00:00 18.3 6 Sudoeste 25 Sudoeste 0 -- -- 35
2019-11-09 13:00:00 16.8 5 Sudoeste 27 Sudoeste 0 -- -- 37
2019-11-09 12:00:00 16.6 6 Sudoeste 35 Sudoeste 0 -- -- 39
2019-11-09 11:00:00 15.3 16 Sudoeste 32 Sudoeste 0 -- -- 39
2019-11-09 10:00:00 14 12 Sudoeste 32 Sudoeste 0 -- -- 42
2019-11-09 09:00:00 12.1 12 Sudoeste 25 Sudoeste 0 -- -- 44
2019-11-09 08:00:00 11.2 9 Sudoeste 22 Sudoeste 0 -- -- 44
2019-11-09 07:00:00 10.9 8 Sudoeste 22 Sudoeste 0 -- -- 44
2019-11-09 06:00:00 11.4 9 Sudoeste 24 Sudoeste 0 -- -- 43
2019-11-09 05:00:00 11.8 10 Sudoeste 26 Sudoeste 0 -- -- 43
2019-11-09 04:00:00 11.6 8 Sudoeste 20 Sudoeste 0 -- -- 43
2019-11-09 03:00:00 12.1 7 Sudoeste 18 Oeste 0 -- -- 41
2019-11-09 02:00:00 12.5 10 Sudoeste 23 Sudoeste 0 -- -- 41
2019-11-09 01:00:00 12.9 6 Sudoeste 22 Sudoeste 0 -- -- 39
2019-11-09 00:00:00 13.3 10 Sudoeste 21 Sur 0 -- -- 39
2019-11-08 23:00:00 13.5 5 Sudoeste 22 Sudoeste 0 -- -- 39
2019-11-08 22:00:00 12.7 6 Sudoeste 15 Sudoeste 0 -- -- 40
2019-11-08 21:00:00 13.2 5 Sudoeste 18 Sudoeste 0 -- -- 39
2019-11-08 20:00:00 14.2 7 Sudoeste 23 Sudoeste 0 -- -- 39
2019-11-08 19:00:00 13.8 5 Sudoeste 23 Sudoeste 0 -- -- 39
2019-11-08 18:00:00 14.5 7 Sudoeste 23 Sudoeste 0 -- -- 38
2019-11-08 17:00:00 15.5 4 Sudoeste 24 Sudoeste 0 -- -- 36
2019-11-08 16:00:00 16.5 4 Sudoeste 30 Sudoeste 0 -- -- 37
2019-11-08 15:00:00 16.5 7 Sudoeste 33 Sudoeste 0 -- -- 37
2019-11-08 14:00:00 16.5 6 Sudoeste 30 Sudoeste 0 -- -- 37
2019-11-08 13:00:00 15.8 3 Oeste 22 Sudoeste 0 -- -- 39
2019-11-08 12:00:00 15.6 3 Oeste 22 Noroeste 0 -- -- 39
2019-11-08 11:00:00 14 4 Sudoeste 23 Sudoeste 0 -- -- 42
2019-11-08 10:00:00 12.1 3 Oeste 23 Sudoeste 0 -- -- 46
2019-11-08 09:00:00 10.9 3 Sudoeste 12 Sudoeste 0 -- -- 48
2019-11-08 08:00:00 9.6 2 Oeste 15 Sudoeste 0 -- -- 50
2019-11-08 07:00:00 9.7 4 Sudoeste 16 Sudoeste 0 -- -- 49
2019-11-08 06:00:00 9.7 2 Oeste 12 Noroeste 0 -- -- 51
2019-11-08 05:00:00 8.9 0 Calma 11 Sudoeste 0 -- -- 52
2019-11-08 04:00:00 9.3 0 Calma 20 Sudoeste 0 -- -- 51
2019-11-08 03:00:00 11.3 4 Sudoeste 32 Sudoeste 0 -- -- 48
2019-11-08 02:00:00 11.8 11 Sudoeste 32 Sudoeste 0 -- -- 47
2019-11-08 01:00:00 11.9 5 Sudoeste 19 Sudoeste 0 -- -- 45
2019-11-08 00:00:00 12.8 2 Oeste 19 Noroeste 0 -- -- 40
2019-11-07 23:00:00 14.3 6 Sudoeste 17 Sudoeste 0 -- -- 36
2019-11-07 22:00:00 13.8 5 Sudoeste 19 Sudoeste 0 -- -- 36
2019-11-07 21:00:00 15 5 Sudoeste 23 Sudoeste 0 -- -- 34
2019-11-07 20:00:00 15.8 4 Sudoeste 21 Sudoeste 0 -- -- 33
2019-11-07 19:00:00 16.8 3 Oeste 18 Noroeste 0 -- -- 32
2019-11-07 18:00:00 18.6 5 Sudoeste 27 Sudoeste 0 -- -- 41
2019-11-07 17:00:00 19.8 6 Sudoeste 21 Sur 0 -- -- 43
2019-11-07 16:00:00 21.1 5 Sudoeste 15 Oeste 0 -- -- 41
2019-11-07 15:00:00 20.1 4 Sudoeste 37 Sudoeste 0 -- -- 42
2019-11-07 14:00:00 20.4 6 Sudoeste 29 Sudoeste 0 -- -- 44
2019-11-07 13:00:00 19.5 4 Sudoeste 30 Sudoeste 0 -- -- 46
2019-11-07 12:00:00 18.9 5 Sudoeste 26 Sur 0 -- -- 48
2019-11-07 11:00:00 18.4 6 Sudoeste 24 Sudoeste 0 -- -- 48
2019-11-07 10:00:00 16.7 6 Sudoeste 25 Sudoeste 0 -- -- 51
2019-11-07 09:00:00 14.4 3 Sudoeste 15 Sudoeste 0 -- -- 54
2019-11-07 08:00:00 13 6 Sudoeste 20 Sudoeste 0 -- -- 53
2019-11-07 07:00:00 12 7 Sudoeste 14 Sudoeste 0 -- -- 53
2019-11-07 06:00:00 12.3 6 Sudoeste 14 Sudoeste 0 -- -- 52
2019-11-07 05:00:00 12.7 7 Sudoeste 22 Sudoeste 0 -- -- 51
2019-11-07 04:00:00 12.7 8 Sudoeste 19 Sudoeste 0 -- -- 51
2019-11-07 03:00:00 12.3 4 Sudoeste 17 Sudoeste 0 -- -- 51
2019-11-07 02:00:00 12.6 7 Sudoeste 22 Sudoeste 0 -- -- 50
2019-11-07 01:00:00 13 9 Sudoeste 24 Sudoeste 0 -- -- 47
2019-11-07 00:00:00 14 7 Sudoeste 18 Sudoeste 0 -- -- 44
2019-11-06 23:00:00 14.2 6 Sudoeste 15 Sudoeste 0 -- -- 44
2019-11-06 22:00:00 14.4 6 Sudoeste 14 Sudoeste 0 -- -- 43
2019-11-06 21:00:00 14.8 8 Sudoeste 15 Sudoeste 0 -- -- 43
2019-11-06 20:00:00 15.9 6 Sudoeste 15 Sudoeste 0 -- -- 42
2019-11-06 19:00:00 15.4 7 Sudoeste 13 Sudoeste 0 -- -- 43
2019-11-06 18:00:00 17.5 6 Sudoeste 26 Sudoeste 0 -- -- 39
2019-11-06 17:00:00 19.9 13 Sudoeste 30 Sudoeste 0 -- -- 35
2019-11-06 16:00:00 20.8 0 Calma 21 Sudoeste 0 -- -- 33
2019-11-06 15:00:00 20.4 3 Sudoeste 20 Sudoeste 0 -- -- 34
2019-11-06 14:00:00 20.1 3 Sudoeste 22 Sudoeste 0 -- -- 35
2019-11-06 13:00:00 19.6 6 Sudoeste 21 Sudoeste 0 -- -- 37
2019-11-06 12:00:00 18.8 2 Noroeste 17 Sudoeste 0 -- -- 37
2019-11-06 11:00:00 17.3 2 Oeste 16 Sudoeste 0 -- -- 40
2019-11-06 10:00:00 16 9 Sudoeste 24 Sudoeste 0 -- -- 44
2019-11-06 09:00:00 13.8 9 Sudoeste 21 Sudoeste 0 -- -- 48
2019-11-06 08:00:00 12.1 9 Sudoeste 23 Sudoeste 0 -- -- 51
2019-11-06 07:00:00 12.2 11 Sudoeste 21 Sudoeste 0 -- -- 51
2019-11-06 06:00:00 12.6 10 Sudoeste 20 Sudoeste 0 -- -- 51
2019-11-06 05:00:00 12.3 10 Sudoeste 19 Sudoeste 0 -- -- 51
2019-11-06 04:00:00 12.8 9 Sudoeste 19 Sudoeste 0 -- -- 51
2019-11-06 03:00:00 13.1 7 Sudoeste 17 Sudoeste 0 -- -- 50
2019-11-06 02:00:00 13 6 Sudoeste 18 Sudoeste 0 -- -- 50
2019-11-06 01:00:00 14.1 7 Sudoeste 14 Sudoeste 0 -- -- 48
2019-11-06 00:00:00 13.6 0 Calma 20 Sudoeste 0 -- -- 48
2019-11-05 23:00:00 14.3 6 Sudoeste 14 Sudoeste 0 -- -- 45
2019-11-05 22:00:00 15 5 Sudoeste 12 Sudoeste 0 -- -- 44
2019-11-05 21:00:00 15.5 0 Calma 13 Sudoeste 0 -- -- 44
2019-11-05 20:00:00 16.6 5 Sudoeste 18 Sudoeste 0 -- -- 42
2019-11-05 19:00:00 16.5 4 Sudoeste 16 Sur 0 -- -- 41
2019-11-05 18:00:00 17.3 4 Sudoeste 18 Sudoeste 0 -- -- 39
2019-11-05 17:00:00 19.4 5 Sudoeste 24 Oeste 0 -- -- 37
2019-11-05 16:00:00 18.9 5 Sudoeste 26 Sudoeste 0 -- -- 37
2019-11-05 15:00:00 18.8 4 Oeste 29 Noroeste 0 -- -- 37
2019-11-05 14:00:00 19.2 8 Sudoeste 35 Noroeste 0 -- -- 37
2019-11-05 13:00:00 18.8 9 Sudoeste 38 Sudoeste 0 -- -- 39
2019-11-05 12:00:00 18.2 5 Sudoeste 32 Sudoeste 0 -- -- 40
2019-11-05 11:00:00 17.3 4 Oeste 25 Sur 0 -- -- 42
2019-11-05 10:00:00 16.7 5 Sudoeste 25 Sur 0 -- -- 43
2019-11-05 09:00:00 15.9 10 Sudoeste 42 Sur 0 -- -- 45
2019-11-05 08:00:00 15 8 Sudoeste 35 Sudoeste 0 -- -- 46
2019-11-05 07:00:00 15.2 8 Sudoeste 27 Sudoeste 0 -- -- 46
2019-11-05 06:00:00 16.1 4 Sudoeste 22 Oeste 0 -- -- 45
2019-11-05 05:00:00 16.9 3 Noroeste 16 Nordeste 0 -- -- 46
2019-11-05 04:00:00 17.9 2 Sudoeste 14 Sudoeste 0 -- -- 45
2019-11-05 03:00:00 18.9 3 Oeste 28 Sudoeste 0 -- -- 45
2019-11-05 02:00:00 19.6 12 Sudoeste 34 Sudoeste 0 -- -- 43
2019-11-05 01:00:00 19.1 14 Sudoeste 37 Sudoeste 0 -- -- 42
2019-11-05 00:00:00 19.4 20 Sudoeste 49 Sudoeste 0 -- -- 42
2019-11-04 23:00:00 20 18 Sudoeste 41 Sudoeste 0 -- -- 42
2019-11-04 22:00:00 20.1 16 Sudoeste 37 Sudoeste 0 -- -- 41
2019-11-04 21:00:00 19.6 4 Sudoeste 26 Sudoeste 0 -- -- 41
2019-11-04 20:00:00 19.2 0 Calma 22 Sudoeste 0 -- -- 42
2019-11-04 19:00:00 21.1 10 Sudoeste 25 Oeste 0 -- -- 39
2019-11-04 18:00:00 21.7 4 Oeste 22 Sudoeste 0 -- -- 39
2019-11-04 17:00:00 23 7 Sudoeste 32 Sudoeste 0 -- -- 39
2019-11-04 16:00:00 23.5 4 Oeste 30 Sudoeste 0 -- -- 38
2019-11-04 15:00:00 23.5 6 Sudoeste 37 Sur 0 -- -- 38
2019-11-04 14:00:00 22.9 10 Sudoeste 35 Sudoeste 0 -- -- 39
2019-11-04 13:00:00 23.3 4 Oeste 33 Sudoeste 0 -- -- 40
2019-11-04 12:00:00 22.4 9 Sudoeste 33 Sudoeste 0 -- -- 43
2019-11-04 11:00:00 21.7 12 Sudoeste 42 Sudoeste 0 -- -- 44
2019-11-04 10:00:00 21.1 9 Sudoeste 36 Sur 0 -- -- 46
2019-11-04 09:00:00 19.7 7 Sudoeste 31 Sudoeste 0 -- -- 48
2019-11-04 08:00:00 19.1 15 Sudoeste 46 Sudoeste 0 -- -- 48
2019-11-04 07:00:00 19.2 9 Sudoeste 42 Sudoeste 0 -- -- 50
2019-11-04 06:00:00 17.9 6 Sudoeste 23 Oeste 0 -- -- 51
2019-11-04 05:00:00 17.2 4 Sudoeste 34 Sudoeste 0 -- -- 51
2019-11-04 04:00:00 17.9 13 Sudoeste 32 Sudoeste 0 -- -- 48
2019-11-04 03:00:00 17.8 7 Sudoeste 26 Sudoeste 0 -- -- 46
2019-11-04 02:00:00 18.3 8 Sudoeste 30 Sudoeste 0 -- -- 43
2019-11-04 01:00:00 18.1 7 Sudoeste 34 Sudoeste 0 -- -- 42
2019-11-04 00:00:00 18.3 8 Sudoeste 29 Sudoeste 0 -- -- 41
2019-11-03 23:00:00 18.2 13 Sudoeste 30 Sudoeste 0 -- -- 42
2019-11-03 22:00:00 18.1 2 Oeste 15 Sudoeste 0 -- -- 42
2019-11-03 21:00:00 18 4 Sudoeste 13 Sudoeste 0 -- -- 43
2019-11-03 20:00:00 18.6 0 Calma 14 Noroeste 0 -- -- 39
2019-11-03 19:00:00 20 3 Oeste 22 Noroeste 0 -- -- 36
2019-11-03 18:00:00 21 4 Oeste 31 Norte 0 -- -- 36
2019-11-03 17:00:00 22.9 3 Oeste 26 Noroeste 0 -- -- 34
2019-11-03 16:00:00 22.9 3 Oeste 25 Sudoeste 0 -- -- 36
2019-11-03 15:00:00 22.1 8 Sudoeste 31 Sur 0 -- -- 41
2019-11-03 14:00:00 21.2 4 Sudoeste 36 Noroeste 0 -- -- 44
2019-11-03 13:00:00 22.4 4 Oeste 36 Oeste 0 -- -- 42
2019-11-03 12:00:00 23.2 7 Sudoeste 37 Sudoeste 0 -- -- 41
2019-11-03 11:00:00 21.4 6 Sudoeste 41 Sudoeste 0 -- -- 44
2019-11-03 10:00:00 21.2 11 Sudoeste 37 Sudoeste 0 -- -- 44
2019-11-03 09:00:00 20.1 8 Sudoeste 38 Sudoeste 0 -- -- 45
2019-11-03 08:00:00 19.4 6 Sudoeste 39 Sudoeste 0 -- -- 45
2019-11-03 07:00:00 19.3 6 Sudoeste 33 Sudoeste 0 -- -- 45
2019-11-03 06:00:00 19.8 10 Sudoeste 37 Sudoeste 0 -- -- 44
2019-11-03 05:00:00 20 9 Sudoeste 42 Sudoeste 0 -- -- 44
2019-11-03 04:00:00 20.2 7 Sudoeste 42 Sur 0 -- -- 46
2019-11-03 03:00:00 20.3 8 Sudoeste 40 Sudoeste 0 -- -- 49
2019-11-03 02:00:00 20.2 10 Sudoeste 33 Sudoeste 0 -- -- 50
2019-11-03 01:00:00 20.4 0 Calma 12 Sudoeste 0 -- -- 50
2019-11-03 00:00:00 20.7 2 Sudoeste 18 Sudoeste 0 -- -- 48
2019-11-02 23:00:00 21.2 4 Sudoeste 31 Sudoeste 0 -- -- 47
2019-11-02 22:00:00 19.3 2 Sudoeste 18 Sudoeste 0 -- -- 51
2019-11-02 21:00:00 19.8 4 Sudoeste 17 Sudoeste 0 -- -- 51
2019-11-02 20:00:00 20.4 0 Calma 21 Sudoeste 0 -- -- 45
2019-11-02 19:00:00 21.6 8 Sudoeste 21 Sudoeste 0 -- -- 42
2019-11-02 18:00:00 22.3 6 Sudoeste 18 Sudoeste 0 -- -- 41
2019-11-02 17:00:00 23.8 3 Sudoeste 25 Sudoeste 0 -- -- 39
2019-11-02 16:00:00 25.2 5 Sudoeste 32 Sudoeste 0 -- -- 38
2019-11-02 15:00:00 24.8 6 Sudoeste 25 Sur 0 -- -- 38
2019-11-02 14:00:00 25 4 Sudoeste 23 Sudoeste 0 -- -- 41
2019-11-02 13:00:00 24.5 4 Sudoeste 25 Oeste 0 -- -- 43
2019-11-02 12:00:00 23.6 4 Sudoeste 25 Sur 0 -- -- 46
2019-11-02 11:00:00 22.7 4 Sudoeste 27 Sudoeste 0 -- -- 48
2019-11-02 10:00:00 21.3 3 Sudoeste 23 Sudoeste 0 -- -- 51
2019-11-02 09:00:00 20.7 6 Sudoeste 21 Sudoeste 0 -- -- 53
2019-11-02 08:00:00 20.6 5 Sudoeste 26 Sudoeste 0 -- -- 53
2019-11-02 07:00:00 20.7 10 Sudoeste 35 Sudoeste 0 -- -- 53
2019-11-02 06:00:00 20.7 5 Sudoeste 26 Sudoeste 0 -- -- 52
2019-11-02 05:00:00 21 5 Sudoeste 28 Oeste 0 -- -- 51
2019-11-02 04:00:00 21.4 6 Sudoeste 27 Sudoeste 0 -- -- 51
2019-11-02 03:00:00 21.6 5 Sudoeste 23 Sudoeste 0 -- -- 51
2019-11-02 02:00:00 21.3 5 Sudoeste 24 Sudoeste 0 -- -- 53
2019-11-02 01:00:00 22 7 Sudoeste 27 Sudoeste 0 -- -- 51
2019-11-02 00:00:00 22.1 6 Sudoeste 23 Oeste 0 -- -- 51
2019-11-01 23:00:00 22.4 6 Sudoeste 26 Sudoeste 0 -- -- 50
2019-11-01 22:00:00 22.7 9 Sudoeste 24 Sudoeste 0 -- -- 49
2019-11-01 21:00:00 23.2 8 Sudoeste 18 Sudoeste 0 -- -- 48
2019-11-01 20:00:00 23.8 7 Sudoeste 20 Sudoeste 0 -- -- 46
2019-11-01 19:00:00 23.3 8 Sudoeste 14 Sudoeste 0 -- -- 48
2019-11-01 18:00:00 24.1 5 Sudoeste 18 Sudoeste 0 -- -- 44
2019-11-01 17:00:00 25.8 4 Sudoeste 23 Sudoeste 0 -- -- 41
2019-11-01 16:00:00 26.5 4 Sudoeste 23 Sur 0 -- -- 41
2019-11-01 15:00:00 26.5 9 Sudoeste 28 Sudoeste 0 -- -- 41
2019-11-01 14:00:00 26.1 6 Sudoeste 27 Sudoeste 0 -- -- 42
2019-11-01 13:00:00 25 7 Sudoeste 27 Sudoeste 0 -- -- 44
2019-11-01 12:00:00 25.1 12 Sudoeste 29 Sudoeste 0 -- -- 45
2019-11-01 11:00:00 24 14 Sudoeste 28 Sudoeste 0 -- -- 50
2019-11-01 10:00:00 22.2 12 Sudoeste 23 Sudoeste 0 -- -- 56
2019-11-01 09:00:00 20.4 8 Sudoeste 25 Sudoeste 0 -- -- 60
2019-11-01 08:00:00 19.3 8 Sudoeste 19 Sur 0 -- -- 60
2019-11-01 07:00:00 19.2 9 Sudoeste 16 Sudoeste 0 -- -- 60
2019-11-01 06:00:00 18.6 8 Sudoeste 17 Sudoeste 0 -- -- 58
2019-11-01 05:00:00 19.4 9 Sudoeste 19 Sudoeste 0 -- -- 57
2019-11-01 04:00:00 19.1 6 Sudoeste 19 Sudoeste 0 -- -- 58
2019-11-01 03:00:00 18.5 8 Sudoeste 14 Sudoeste 0 -- -- 58
2019-11-01 02:00:00 18.7 7 Sudoeste 13 Sudoeste 0 -- -- 60
2019-11-01 01:00:00 17.2 7 Sudoeste 10 Sudoeste 0 -- -- 66
2019-11-01 00:00:00 16.5 0 Calma 10 Sudoeste 0 -- -- 66
2019-10-31 23:00:00 17.9 5 Sudoeste 8 Sudoeste 0 -- -- 60
2019-10-31 22:00:00 18.8 0 Calma 13 Sudoeste 0 -- -- 57
2019-10-31 21:00:00 20.4 8 Sudoeste 14 Sudoeste 0 -- -- 51
2019-10-31 20:00:00 18.2 3 Sudoeste 9 Sudoeste 0 -- -- 60
2019-10-31 19:00:00 19.7 3 Sudeste 13 Este 0 -- -- 51
2019-10-31 18:00:00 21.4 7 Este 14 Este 0 -- -- 47
2019-10-31 17:00:00 24.4 4 Sudeste 10 Este 0 -- -- 44
2019-10-31 16:00:00 24.4 6 Este 12 Este 0 -- -- 43
2019-10-31 15:00:00 24 7 Nordeste 14 Nordeste 0 -- -- 44
2019-10-31 14:00:00 25.9 0 Calma 21 Sudoeste 0 -- -- 38
2019-10-31 13:00:00 24.9 0 Calma 14 Sudoeste 0 -- -- 43
2019-10-31 12:00:00 24.5 0 Calma 25 Sudoeste 0 -- -- 45
2019-10-31 11:00:00 22.9 10 Sudoeste 25 Sudoeste 0 -- -- 50
2019-10-31 10:00:00 22 10 Sudoeste 24 Sudoeste 0 -- -- 54
2019-10-31 09:00:00 20.5 11 Sudoeste 21 Sudoeste 0 -- -- 57
2019-10-31 08:00:00 19.6 6 Sudoeste 17 Sudoeste 0 -- -- 58
2019-10-31 07:00:00 18.4 7 Sudoeste 14 Sudoeste 0 -- -- 60
2019-10-31 06:00:00 19 8 Sudoeste 17 Sudoeste 0 -- -- 56
2019-10-31 05:00:00 19 9 Sudoeste 18 Sudoeste 0 -- -- 55
2019-10-31 04:00:00 19.3 7 Sudoeste 19 Sudoeste 0 -- -- 54
2019-10-31 03:00:00 19.9 9 Sudoeste 18 Sudoeste 0 -- -- 51
2019-10-31 02:00:00 20.5 9 Sudoeste 18 Sudoeste 0 -- -- 50
2019-10-31 01:00:00 20 7 Sudoeste 14 Sudoeste 0 -- -- 53
2019-10-31 00:00:00 18.5 0 Calma 0 Calma 0 -- -- 66
2019-10-30 23:00:00 18.6 0 Calma 4 Sudoeste 0 -- -- 75
2019-10-30 22:00:00 17.5 0 Calma 3 Oeste 0 -- -- 75
2019-10-30 21:00:00 17.4 0 Calma 8 Noroeste 0 -- -- 73
2019-10-30 20:00:00 18.1 0 Calma 8 Sudeste 0 -- -- 71
2019-10-30 19:00:00 19 4 Sudeste 11 Sudeste 0 -- -- 67
2019-10-30 18:00:00 19.6 5 Este 13 Este 0 -- -- 61
2019-10-30 17:00:00 21.5 8 Este 16 Este 0 -- -- 51
2019-10-30 16:00:00 23.5 8 Este 15 Este 0 -- -- 46
2019-10-30 15:00:00 23.7 6 Nordeste 12 Sudoeste 0 -- -- 42
2019-10-30 14:00:00 23.2 2 Oeste 9 Nordeste 0 -- -- 42
2019-10-30 13:00:00 22.9 4 Sudoeste 17 Sudoeste 0 -- -- 44
2019-10-30 12:00:00 22.1 5 Sudoeste 19 Sudoeste 0 -- -- 47
2019-10-30 11:00:00 20.6 9 Sudoeste 21 Sudoeste 0 -- -- 51
2019-10-30 10:00:00 18.8 7 Sudoeste 18 Sudoeste 0 -- -- 57
2019-10-30 09:00:00 17.4 5 Sudoeste 17 Sudoeste 0 -- -- 62
2019-10-30 08:00:00 16.6 8 Sudoeste 15 Sudoeste 0 -- -- 63
2019-10-30 07:00:00 16.2 0 Calma 13 Sudoeste 0 -- -- 66
2019-10-30 06:00:00 15.9 0 Calma 15 Sudoeste 0 -- -- 68
2019-10-30 05:00:00 15.9 4 Sudoeste 17 Sudoeste 0 -- -- 70
2019-10-30 04:00:00 13.9 0 Calma 7 Sudoeste 0 -- -- 78
2019-10-30 03:00:00 14.6 0 Calma 9 Sudoeste 0 -- -- 79
2019-10-30 02:00:00 15.2 0 Calma 12 Sudoeste 0 -- -- 80
2019-10-30 01:00:00 15.9 0 Calma 4 Sudoeste 0 -- -- 80
2019-10-30 00:00:00 16.8 0 Calma -- -- 0 -- -- 80
2019-10-29 23:00:00 16.4 0 Calma 9 Sur 0 -- -- 80
2019-10-29 22:00:00 17.3 0 Calma -- -- 0 -- -- 80
2019-10-29 21:00:00 16.9 0 Calma 6 Sudoeste 0 -- -- 78
2019-10-29 20:00:00 17.3 0 Calma 6 Nordeste 0 -- -- 77
2019-10-29 19:00:00 18.1 5 Nordeste 10 Este 0 -- -- 77
2019-10-29 18:00:00 19.4 7 Este 20 Este 0 -- -- 72
2019-10-29 17:00:00 20.8 12 Este 27 Este 0 -- -- 63
2019-10-29 16:00:00 21.7 13 Este 22 Este 0 -- -- 58
2019-10-29 15:00:00 22.3 13 Este 21 Este 0 -- -- 54
2019-10-29 14:00:00 23.9 4 Este 18 Este 0 -- -- 46
2019-10-29 13:00:00 23.6 2 Sudoeste 16 Sudoeste 0 -- -- 42
2019-10-29 12:00:00 22.6 7 Sudoeste 14 Sudoeste 0 -- -- 44
2019-10-29 11:00:00 20.6 5 Sudoeste 14 Sudoeste 0 -- -- 50
2019-10-29 10:00:00 17.9 0 Calma 15 Sur 0 -- -- 58
2019-10-29 09:00:00 13.9 0 Calma -- -- 0 -- -- 81
2019-10-29 08:00:00 12.1 0 Calma -- -- 0 -- -- 81
2019-10-29 07:00:00 12.4 0 Calma -- -- 0 -- -- 81
2019-10-29 06:00:00 13.3 0 Calma -- -- 0 -- -- 81
2019-10-29 05:00:00 13.8 0 Calma -- -- 0 -- -- 81
2019-10-29 04:00:00 13.7 0 Calma -- -- 0 -- -- 81
2019-10-29 03:00:00 14.6 0 Calma 7 Oeste 0 -- -- 81
2019-10-29 02:00:00 15.4 0 Calma 9 Sudoeste 0 -- -- 81
2019-10-29 01:00:00 14.9 0 Calma 4 Sudoeste 0 -- -- 81
2019-10-29 00:00:00 15.6 0 Calma 6 Sudoeste 0 -- -- 81
2019-10-28 23:00:00 14.8 0 Calma -- -- 0 -- -- 81
2019-10-28 22:00:00 15.7 0 Calma 0 Calma 0 -- -- 80
2019-10-28 21:00:00 16 0 Calma -- -- 0 -- -- 80
2019-10-28 20:00:00 16.1 0 Calma 6 Este 0 -- -- 78
2019-10-28 19:00:00 16.9 3 Este 7 Este 0 -- -- 76
2019-10-28 18:00:00 18.3 5 Este 10 Este 0 -- -- 72
2019-10-28 17:00:00 20.1 5 Este 11 Este 0 -- -- 62
2019-10-28 16:00:00 20.5 3 Este 7 Este 0 -- -- 60
2019-10-28 15:00:00 20 0 Calma 6 Sudoeste 0 -- -- 60
2019-10-28 14:00:00 20.2 2 Sudoeste 7 Sudoeste 0 -- -- 57
2019-10-28 13:00:00 19.9 0 Calma 9 Nordeste 0 -- -- 58
2019-10-28 12:00:00 19.6 0 Calma 8 Sudoeste 0 -- -- 59
2019-10-28 11:00:00 18.8 4 Sudoeste 14 Sudoeste 0 -- -- 62
2019-10-28 10:00:00 17.8 8 Sudoeste 20 Sudoeste 0 -- -- 64
2019-10-28 09:00:00 16.7 0 Calma 20 Sudoeste 0 -- -- 72
2019-10-28 08:00:00 15 0 Calma 12 Sudoeste 0 -- -- 78
2019-10-28 07:00:00 14.4 0 Calma 11 Sudoeste 0 -- -- 80
2019-10-28 06:00:00 14.7 0 Calma 11 Sudoeste 0 -- -- 80
2019-10-28 05:00:00 14.9 0 Calma 8 Sudoeste 0 -- -- 80
2019-10-28 04:00:00 15.1 0 Calma -- -- 0 -- -- 80
2019-10-28 03:00:00 15.6 0 Calma -- -- 0 -- -- 80
2019-10-28 02:00:00 16.1 0 Calma -- -- 0 -- -- 79
2019-10-28 01:00:00 16.4 0 Calma -- -- 0 -- -- 80
2019-10-28 00:00:00 16.2 0 Calma 6 Sudoeste 0 -- -- 80
2019-10-27 23:00:00 15.8 0 Calma 9 Sudoeste 0 -- -- 80
2019-10-27 22:00:00 15.7 0 Calma 2 Sudoeste 0 -- -- 80
2019-10-27 21:00:00 15.6 0 Calma 5 Sudoeste 0 -- -- 79
2019-10-27 20:00:00 15.5 0 Calma 9 Sudeste 0 -- -- 77
2019-10-27 19:00:00 16.6 8 Este 13 Este 0 -- -- 75
2019-10-27 18:00:00 18.2 8 Este 21 Este 0 -- -- 67
2019-10-27 17:00:00 19.7 10 Este 22 Este 0 -- -- 61
2019-10-27 16:00:00 20.2 9 Este 19 Este 0 -- -- 56
2019-10-27 15:00:00 20.7 10 Este 19 Este 0 -- -- 56
2019-10-27 14:00:00 21.1 6 Este 14 Nordeste 0 -- -- 56
2019-10-27 13:00:00 20.8 3 Sudeste 11 Este 0 -- -- 56
2019-10-27 12:00:00 19.9 2 Norte 12 Sudoeste 0 -- -- 60
2019-10-27 11:00:00 18.7 6 Sudoeste 17 Sudoeste 0 -- -- 62
2019-10-27 10:00:00 17.4 7 Sudoeste 19 Sudoeste 0 -- -- 68
2019-10-27 09:00:00 15.6 0 Calma 13 Sudoeste 0 -- -- 78
2019-10-27 08:00:00 13.6 3 Sudoeste 12 Sudoeste 0 -- -- 80
2019-10-27 07:00:00 14 0 Calma 7 Sudoeste 0 -- -- 80
2019-10-27 06:00:00 14.3 0 Calma 5 Sudoeste 0 -- -- 80
2019-10-27 05:00:00 14.2 0 Calma -- -- 0 -- -- 80
2019-10-27 04:00:00 15 0 Calma 7 Sudoeste 0 -- -- 80
2019-10-27 03:00:00 14.7 0 Calma 11 Sudoeste 0 -- -- 80
2019-10-27 02:00:00 15.1 0 Calma 12 Sudoeste 0 -- -- 80
2019-10-27 01:00:00 14.2 0 Calma -- -- 0 -- -- 80
2019-10-27 00:00:00 13.9 0 Calma 6 Sudoeste 0 -- -- 79
2019-10-26 23:00:00 14.4 0 Calma 9 Sudoeste 0 -- -- 79
2019-10-26 22:00:00 14.9 3 Sudoeste 6 Sudoeste 0 -- -- 77
2019-10-26 21:00:00 15.7 0 Calma 3 Noroeste 0 -- -- 76
2019-10-26 20:00:00 16.8 4 Nordeste 9 Este 0 -- -- 72
2019-10-26 19:00:00 18.5 5 Este 14 Este 0 -- -- 65
2019-10-26 18:00:00 20.7 8 Este 17 Este 0 -- -- 53
2019-10-26 17:00:00 21.2 8 Este 16 Este 0 -- -- 53
2019-10-26 16:00:00 21.3 8 Este 15 Nordeste 0 -- -- 50
2019-10-26 15:00:00 21.2 8 Nordeste 18 Nordeste 0 -- -- 51
2019-10-26 14:00:00 21.2 6 Nordeste 12 Nordeste 0 -- -- 48
2019-10-26 13:00:00 20.7 4 Nordeste 8 Nordeste 0 -- -- 47
2019-10-26 12:00:00 18.5 0 Calma 10 Sudoeste 0 -- -- 57
2019-10-26 11:00:00 16.4 4 Sudoeste 13 Sudoeste 0 -- -- 64
2019-10-26 10:00:00 13 0 Calma -- -- 0 -- -- 80
2019-10-26 09:00:00 10.8 0 Calma -- -- 0 -- -- 81
2019-10-26 08:00:00 10.2 0 Calma -- -- 0 -- -- 80
2019-10-26 07:00:00 10.9 0 Calma 9 Sudoeste 0 -- -- 79
2019-10-26 06:00:00 12 3 Sudoeste 12 Sudoeste 0 -- -- 76
2019-10-26 05:00:00 13.2 4 Sudoeste 12 Sudoeste 0 -- -- 75
2019-10-26 04:00:00 11.2 0 Calma 5 Sudoeste 0 -- -- 76
2019-10-26 03:00:00 12.8 0 Calma 14 Sudoeste 0 -- -- 72
2019-10-26 02:00:00 14.5 2 Sudoeste 10 Sur 0 -- -- 65
2019-10-26 01:00:00 15.5 4 Sudoeste 11 Sudoeste 0 -- -- 64
2019-10-26 00:00:00 15.3 3 Sudoeste 12 Sudoeste 0 -- -- 69
2019-10-25 23:00:00 15.7 4 Sudoeste 10 Sudoeste 0 -- -- 72
2019-10-25 22:00:00 13.4 0 Calma 5 Sudoeste 0 -- -- 75
2019-10-25 21:00:00 14.8 0 Calma 6 Este 0 -- -- 72
2019-10-25 20:00:00 16.1 5 Este 13 Este 0 -- -- 66
2019-10-25 19:00:00 18.5 6 Este 15 Este 0 -- -- 56
2019-10-25 18:00:00 20.7 8 Este 16 Este 0 -- -- 46
2019-10-25 17:00:00 21.9 6 Este 12 Este 0 -- -- 43
2019-10-25 16:00:00 21.9 5 Este 12 Este 0 -- -- 41
2019-10-25 15:00:00 21.8 6 Este 15 Este 0 -- -- 42
2019-10-25 14:00:00 21.7 4 Sudoeste 15 Sudoeste 0 -- -- 40
2019-10-25 13:00:00 20.9 3 Sudoeste 18 Sudoeste 0 -- -- 41
2019-10-25 12:00:00 19.9 6 Sudoeste 22 Sudoeste 0 -- -- 44
2019-10-25 11:00:00 17.8 11 Sudoeste 24 Sudoeste 0 -- -- 48
2019-10-25 10:00:00 16.2 12 Sudoeste 26 Sudoeste 0 -- -- 53
2019-10-25 09:00:00 14.6 11 Sudoeste 21 Sudoeste 0 -- -- 55
2019-10-25 08:00:00 14.2 7 Sudoeste 20 Sudoeste 0 -- -- 55
2019-10-25 07:00:00 14.5 11 Sudoeste 20 Sudoeste 0 -- -- 55
2019-10-25 06:00:00 14.5 9 Sudoeste 17 Sudoeste 0 -- -- 55
2019-10-25 05:00:00 14.6 9 Sudoeste 17 Sudoeste 0 -- -- 54
2019-10-25 04:00:00 14.7 9 Sudoeste 17 Sudoeste 0 -- -- 53
2019-10-25 03:00:00 15.4 10 Sudoeste 22 Sudoeste 0 -- -- 51
2019-10-25 02:00:00 15.6 8 Sudoeste 18 Sudoeste 0 -- -- 51
2019-10-25 01:00:00 16 5 Sudoeste 22 Sudoeste 0 -- -- 51
2019-10-25 00:00:00 16.3 9 Sudoeste 17 Sudoeste 0 -- -- 48
2019-10-24 23:00:00 16.4 9 Sudoeste 18 Sudoeste 0 -- -- 47
2019-10-24 22:00:00 16.6 6 Sudoeste 14 Sudoeste 0 -- -- 47
2019-10-24 21:00:00 17.2 6 Sudoeste 21 Sudoeste 0 -- -- 45
2019-10-24 20:00:00 17.5 8 Sudoeste 16 Sudoeste 0 -- -- 45
2019-10-24 19:00:00 18.5 4 Sudoeste 10 Sudoeste 0 -- -- 44
2019-10-24 18:00:00 21.2 3 Sudoeste 17 Sudoeste 0 -- -- 37
2019-10-24 17:00:00 20.8 6 Sudoeste 19 Sudoeste 0 -- -- 37
2019-10-24 16:00:00 21.2 4 Sudoeste 23 Sudoeste 0 -- -- 38
2019-10-24 15:00:00 20.4 0 Calma 15 Sur 0 -- -- 40
2019-10-24 14:00:00 19.8 2 Oeste 24 Sudoeste 0 -- -- 41
2019-10-24 13:00:00 19.4 5 Sudoeste 20 Sudoeste 0 -- -- 42
2019-10-24 12:00:00 18.4 6 Sudoeste 19 Sudoeste 0 -- -- 45
2019-10-24 11:00:00 16.2 10 Sudoeste 21 Sudoeste 0 -- -- 51
2019-10-24 10:00:00 14.4 8 Sudoeste 17 Sudoeste 0 -- -- 57
2019-10-24 09:00:00 12.1 7 Sudoeste 16 Sudoeste 0 -- -- 62
2019-10-24 08:00:00 11.8 7 Sudoeste 19 Sudoeste 0 -- -- 61
2019-10-24 07:00:00 11.7 9 Sudoeste 18 Sudoeste 0 -- -- 63
2019-10-24 06:00:00 11.7 12 Sudoeste 22 Sudoeste 0 -- -- 64
2019-10-24 05:00:00 11.7 9 Sudoeste 21 Sudoeste 0 -- -- 64
2019-10-24 04:00:00 11.8 12 Sudoeste 24 Sudoeste 0 -- -- 63
2019-10-24 03:00:00 11.7 9 Sudoeste 16 Sudoeste 0 -- -- 64
2019-10-24 02:00:00 11.7 10 Sudoeste 16 Sudoeste 0 -- -- 64
2019-10-24 01:00:00 11.8 6 Sudoeste 12 Sudoeste 0 -- -- 64
2019-10-24 00:00:00 12.3 6 Sudoeste 12 Sudoeste 0 -- -- 62
2019-10-23 23:00:00 12.5 6 Sudoeste 12 Sudoeste 0 -- -- 61
2019-10-23 22:00:00 11.6 3 Sudoeste 9 Sudoeste 0 -- -- 70
2019-10-23 21:00:00 12.3 0 Calma 11 Sur 0 -- -- 68
2019-10-23 20:00:00 13 2 Sudoeste 13 Sur 0 -- -- 63
2019-10-23 19:00:00 14.1 4 Sudoeste 11 Sudoeste 0 -- -- 60
2019-10-23 18:00:00 15 0 Calma 10 Sudoeste 0 -- -- 64
2019-10-23 17:00:00 15.2 0 Calma 23 Sudoeste 0.9 -- -- 65
2019-10-23 16:00:00 17.9 5 Sudoeste 13 Sudoeste 0 -- -- 41
2019-10-23 15:00:00 18.2 0 Calma 15 Sudoeste 0 -- -- 39
2019-10-23 14:00:00 17.9 6 Sudoeste 22 Sudoeste 0 -- -- 39
2019-10-23 13:00:00 17.5 6 Sudoeste 27 Sudoeste 0 -- -- 44
2019-10-23 12:00:00 16.1 10 Sudoeste 27 Sudoeste 0 -- -- 46
2019-10-23 11:00:00 14.6 10 Sudoeste 20 Sudoeste 0.1 -- -- 51
2019-10-23 10:00:00 13.2 8 Sudoeste 18 Sudoeste 0 -- -- 56
2019-10-23 09:00:00 12.7 10 Sudoeste 22 Sudoeste 0 -- -- 58
2019-10-23 08:00:00 11.2 7 Sudoeste 17 Sudoeste 0 -- -- 64
2019-10-23 07:00:00 11.8 4 Sudoeste 21 Sudoeste 0 -- -- 63
2019-10-23 06:00:00 11.2 5 Sudoeste 12 Sudoeste 0 -- -- 68
2019-10-23 05:00:00 11.8 8 Sudoeste 18 Sudoeste 0 -- -- 67
2019-10-23 04:00:00 11.3 4 Sudoeste 12 Sudoeste 0 -- -- 73
2019-10-23 03:00:00 12.5 8 Sudoeste 20 Sudoeste 0 -- -- 71
2019-10-23 02:00:00 11.6 2 Sudoeste 13 Sudoeste 0 -- -- 75
2019-10-23 01:00:00 12.4 8 Sudoeste 15 Sudoeste 0 -- -- 72
2019-10-23 00:00:00 13.1 0 Calma 18 Sudoeste 0 -- -- 69
2019-10-22 23:00:00 13.5 0 Calma -- -- 0 -- -- 69
2019-10-22 22:00:00 13.6 0 Calma -- -- 0 -- -- 75
2019-10-22 21:00:00 13.8 0 Calma 12 Sudoeste 0 -- -- 77
2019-10-22 20:00:00 13.5 0 Calma 5 Sudoeste 0 -- -- 76
2019-10-22 19:00:00 14.2 0 Calma 13 Sudoeste 0 -- -- 73
2019-10-22 18:00:00 14.8 2 Sudoeste 17 Sudoeste 0 -- -- 73
2019-10-22 17:00:00 14.1 4 Sudoeste 18 Sudoeste 0 -- -- 81
2019-10-22 16:00:00 13.5 0 Calma 19 Sudoeste 0.2 -- -- 82
2019-10-22 15:00:00 13.3 10 Sudoeste 24 Sudoeste 0.8 -- -- 82
2019-10-22 14:00:00 13.3 8 Sudoeste 26 Sudoeste 0.8 -- -- 82
2019-10-22 13:00:00 13.5 10 Sudoeste 23 Sudoeste 0.6 -- -- 82
2019-10-22 12:00:00 13.3 0 Calma 11 Sudoeste 0.3 -- -- 82
2019-10-22 11:00:00 13.5 0 Calma 9 Sur 4.4 -- -- 82
2019-10-22 10:00:00 12.9 9 Sudoeste 15 Sudoeste 3.6 -- -- 82
2019-10-22 09:00:00 13 0 Calma -- -- 2.2 -- -- 82
2019-10-22 08:00:00 13.1 0 Calma -- -- 0.7 -- -- 82
2019-10-22 07:00:00 12.9 0 Calma -- -- 2.7 -- -- 82
2019-10-22 06:00:00 12.8 0 Calma -- -- 3.4 -- -- 82
2019-10-22 05:00:00 12.9 0 Calma 9 Norte 5.3 -- -- 82
2019-10-22 04:00:00 13.2 0 Calma 10 Norte 5.5 -- -- 81
2019-10-22 03:00:00 14 0 Calma -- -- 2.8 -- -- 79
2019-10-22 02:00:00 14.8 0 Calma -- -- 0 -- -- 75
2019-10-22 01:00:00 14.4 0 Calma 9 Sudoeste 0 -- -- 76
2019-10-22 00:00:00 14.8 0 Calma 3 Sudoeste 0 -- -- 76
2019-10-21 23:00:00 14.5 0 Calma 6 Norte 0 -- -- 75
2019-10-21 22:00:00 14.7 0 Calma 6 Nordeste 0 -- -- 75
2019-10-21 21:00:00 15.2 3 Este 7 Este 0 -- -- 72
2019-10-21 20:00:00 15.5 4 Este 16 Sudeste 0 -- -- 67
2019-10-21 19:00:00 16.3 7 Sudeste 23 Sudeste 0 -- -- 62
2019-10-21 18:00:00 16.8 10 Este 24 Sudeste 0 -- -- 58
2019-10-21 17:00:00 17.6 10 Sudeste 24 Este 0 -- -- 51
2019-10-21 16:00:00 18.4 9 Sudeste 24 Este 0 -- -- 46
2019-10-21 15:00:00 19.1 7 Sudeste 23 Este 0 -- -- 41
2019-10-21 14:00:00 18.3 0 Calma 14 Sudoeste 0 -- -- 44
2019-10-21 13:00:00 18.1 4 Sudoeste 20 Sudoeste 0 -- -- 45
2019-10-21 12:00:00 17.1 8 Sudoeste 24 Sudoeste 0 -- -- 47
2019-10-21 11:00:00 13.6 10 Sudoeste 22 Sudoeste 0 -- -- 58
2019-10-21 10:00:00 12.7 7 Sudoeste 18 Sudoeste 0 -- -- 61
2019-10-21 09:00:00 12.1 9 Sudoeste 22 Sudoeste 0 -- -- 61
2019-10-21 08:00:00 11.9 10 Sudoeste 22 Sudoeste 0 -- -- 61
2019-10-21 07:00:00 12.6 12 Sudoeste 24 Sudoeste 0 -- -- 60
2019-10-21 06:00:00 12.4 13 Sudoeste 23 Sudoeste 0 -- -- 60
2019-10-21 05:00:00 12.6 8 Sudoeste 22 Sudoeste 0 -- -- 58
2019-10-21 04:00:00 11.6 6 Sudoeste 13 Sudoeste 0 -- -- 63
2019-10-21 03:00:00 11.9 0 Calma 9 Sudoeste 0 -- -- 63
2019-10-21 02:00:00 11.5 0 Calma 10 Sudoeste 0 -- -- 66
2019-10-21 01:00:00 12 2 Sudoeste 9 Sudoeste 0 -- -- 65
2019-10-21 00:00:00 12.3 0 Calma 9 Sudoeste 0 -- -- 65
2019-10-20 23:00:00 12.7 0 Calma 10 Sur 0 -- -- 63
2019-10-20 22:00:00 13.4 0 Calma 5 Sudoeste 0 -- -- 62
2019-10-20 21:00:00 15.9 0 Calma 13 Sudoeste 0 -- -- 54
2019-10-20 20:00:00 15.7 2 Sudoeste 5 Sudoeste 0 -- -- 66
2019-10-20 19:00:00 17.4 0 Calma 6 Sudoeste 0 -- -- 57
2019-10-20 18:00:00 18.7 3 Sudoeste 18 Sudoeste 0 -- -- 50
2019-10-20 17:00:00 19.3 3 Sudoeste 20 Sudoeste 0 -- -- 50
2019-10-20 16:00:00 17.9 2 Sudoeste 14 Sudoeste 0 -- -- 57
2019-10-20 15:00:00 17 3 Sudoeste 19 Sudoeste 0.2 -- -- 68
2019-10-20 14:00:00 17.1 6 Sudoeste 21 Sudoeste 0 -- -- 67
2019-10-20 13:00:00 17 0 Calma 12 Sudoeste 0.2 -- -- 72
2019-10-20 12:00:00 16.9 0 Calma 12 Sudoeste 0.7 -- -- 72
2019-10-20 11:00:00 17.5 0 Calma -- -- 0 -- -- 67
2019-10-20 10:00:00 17.3 0 Calma 17 Sudoeste 0 -- -- 66
2019-10-20 09:00:00 16.3 0 Calma 12 Sudoeste 0 -- -- 75
2019-10-20 08:00:00 16.6 0 Calma 22 Oeste 0.4 -- -- 70
2019-10-20 07:00:00 17.6 0 Calma -- -- 0 -- -- 70
2019-10-20 06:00:00 18.1 0 Calma 0 Calma 0 -- -- 68
2019-10-20 05:00:00 17.6 0 Calma 11 Sudoeste 0 -- -- 72
2019-10-20 04:00:00 16.1 0 Calma -- -- 0 -- -- 75
2019-10-20 03:00:00 16.4 0 Calma 8 Sudoeste 0 -- -- 73
2019-10-20 02:00:00 16.6 0 Calma 14 Sudoeste 0 -- -- 69
2019-10-20 01:00:00 19 0 Calma 8 Sudoeste 0 -- -- 63
2019-10-20 00:00:00 18.6 0 Calma -- -- 0 -- -- 66
2019-10-19 23:00:00 18.3 0 Calma -- -- 0 -- -- 69
2019-10-19 22:00:00 18.4 0 Calma 4 Sur 0 -- -- 71
2019-10-19 21:00:00 18.7 0 Calma 6 Sudoeste 0 -- -- 69
2019-10-19 20:00:00 20.3 3 Este 8 Este 0 -- -- 65
2019-10-19 19:00:00 21.9 6 Este 20 Este 0 -- -- 54
2019-10-19 18:00:00 23 12 Este 27 Sudeste 0 -- -- 48
2019-10-19 17:00:00 23.4 15 Este 31 Sudeste 0 -- -- 46
2019-10-19 16:00:00 24.4 13 Sudeste 32 Sudeste 0 -- -- 45
2019-10-19 15:00:00 25.1 13 Sudeste 27 Este 0 -- -- 45
2019-10-19 14:00:00 26.1 3 Sudoeste 16 Sudoeste 0 -- -- 41
2019-10-19 13:00:00 24.8 5 Sudoeste 27 Sudoeste 0 -- -- 44
2019-10-19 12:00:00 23.6 5 Sudoeste 21 Sudoeste 0 -- -- 47
2019-10-19 11:00:00 22.1 8 Sudoeste 22 Sudoeste 0 -- -- 51
2019-10-19 10:00:00 20.6 9 Sudoeste 17 Sur 0 -- -- 53
2019-10-19 09:00:00 18.3 6 Sudoeste 14 Sudoeste 0 -- -- 54
2019-10-19 08:00:00 18.2 6 Sudoeste 14 Sudoeste 0 -- -- 51
2019-10-19 07:00:00 18.3 6 Sudoeste 15 Sudoeste 0 -- -- 51
2019-10-19 06:00:00 18.5 9 Sudoeste 16 Sudoeste 0 -- -- 51
2019-10-19 05:00:00 18.3 3 Oeste 13 Sudoeste 0 -- -- 51
2019-10-19 04:00:00 18.7 4 Sudoeste 13 Sudoeste 0 -- -- 51
2019-10-19 03:00:00 19.8 8 Sudoeste 15 Sudoeste 0 -- -- 49
2019-10-19 02:00:00 19.8 8 Sudoeste 14 Sudoeste 0 -- -- 48
2019-10-19 01:00:00 20.2 9 Sudoeste 17 Sudoeste 0 -- -- 48
2019-10-19 00:00:00 19.8 5 Sudoeste 12 Sudoeste 0 -- -- 53
2019-10-18 23:00:00 20.2 6 Sudoeste 12 Sudoeste 0 -- -- 57
2019-10-18 22:00:00 18.5 0 Calma 4 Noroeste 0 -- -- 65
2019-10-18 21:00:00 20.3 2 Sur 7 Sudeste 0 -- -- 54
2019-10-18 20:00:00 21.8 4 Sudeste 14 Sudeste 0 -- -- 48
2019-10-18 19:00:00 23.2 5 Sudeste 16 Este 0 -- -- 46
2019-10-18 18:00:00 26.3 3 Nordeste 13 Sudoeste 0 -- -- 41
2019-10-18 17:00:00 27.1 0 Calma 11 Noroeste 0 -- -- 41
2019-10-18 16:00:00 26.6 0 Calma 18 Noroeste 0 -- -- 41
2019-10-18 15:00:00 26.2 2 Sudoeste 19 Sudoeste 0 -- -- 41
2019-10-18 14:00:00 25.6 3 Sudoeste 20 Sudoeste 0 -- -- 42
2019-10-18 13:00:00 25 8 Sudoeste 20 Sudoeste 0 -- -- 42
2019-10-18 12:00:00 23.4 7 Sudoeste 18 Sudoeste 0 -- -- 44
2019-10-18 11:00:00 21.3 8 Sudoeste 17 Sudoeste 0 -- -- 48
2019-10-18 10:00:00 18.7 7 Sudoeste 16 Sudoeste 0 -- -- 50
2019-10-18 09:00:00 16.4 3 Sudoeste 10 Sudoeste 0 -- -- 55
2019-10-18 08:00:00 16.4 0 Calma 14 Sudoeste 0 -- -- 53
2019-10-18 07:00:00 17.8 6 Sudoeste 17 Sudoeste 0 -- -- 50
2019-10-18 06:00:00 18.1 9 Sudoeste 21 Sudoeste 0 -- -- 52
2019-10-18 05:00:00 18 7 Sudoeste 18 Sudoeste 0 -- -- 53
2019-10-18 04:00:00 18.6 4 Sudoeste 14 Sudoeste 0 -- -- 51
2019-10-18 03:00:00 19.4 8 Sudoeste 14 Oeste 0 -- -- 50
2019-10-18 02:00:00 19.3 6 Sudoeste 12 Sudoeste 0 -- -- 51
2019-10-18 01:00:00 18.2 4 Sudoeste 12 Sudoeste 0 -- -- 54
2019-10-18 00:00:00 18.7 5 Sudoeste 13 Sudoeste 0 -- -- 53